sensor_id;sensor_type;location;lat;lon;timestamp;P1;durP1;ratioP1;P2;durP2;ratioP2
8285;SDS011;4181;43.416;24.598;2023-03-16T00:01:18;16.07;;;12.70;;
8285;SDS011;4181;43.416;24.598;2023-03-16T00:03:44;17.67;;;13.33;;
8285;SDS011;4181;43.416;24.598;2023-03-16T00:06:09;15.60;;;12.13;;
8285;SDS011;4181;43.416;24.598;2023-03-16T00:08:35;18.03;;;12.97;;
8285;SDS011;4181;43.416;24.598;2023-03-16T00:11:01;17.97;;;13.33;;
8285;SDS011;4181;43.416;24.598;2023-03-16T00:13:27;15.07;;;12.57;;
8285;SDS011;4181;43.416;24.598;2023-03-16T00:15:54;15.53;;;12.07;;
8285;SDS011;4181;43.416;24.598;2023-03-16T00:18:23;13.77;;;11.43;;
8285;SDS011;4181;43.416;24.598;2023-03-16T00:20:58;13.00;;;9.43;;
8285;SDS011;4181;43.416;24.598;2023-03-16T00:23:26;12.27;;;9.77;;
8285;SDS011;4181;43.416;24.598;2023-03-16T00:25:55;8.80;;;7.33;;
8285;SDS011;4181;43.416;24.598;2023-03-16T00:28:22;7.90;;;6.83;;
8285;SDS011;4181;43.416;24.598;2023-03-16T00:30:48;7.97;;;7.10;;
8285;SDS011;4181;43.416;24.598;2023-03-16T00:33:13;6.70;;;6.00;;
8285;SDS011;4181;43.416;24.598;2023-03-16T00:35:39;6.70;;;6.00;;
8285;SDS011;4181;43.416;24.598;2023-03-16T00:38:13;10.07;;;6.17;;
8285;SDS011;4181;43.416;24.598;2023-03-16T00:40:39;11.00;;;6.27;;
8285;SDS011;4181;43.416;24.598;2023-03-16T00:43:04;6.03;;;5.03;;
8285;SDS011;4181;43.416;24.598;2023-03-16T00:45:30;5.60;;;5.00;;
8285;SDS011;4181;43.416;24.598;2023-03-16T00:47:57;4.83;;;4.33;;
8285;SDS011;4181;43.416;24.598;2023-03-16T00:50:22;4.80;;;4.23;;
8285;SDS011;4181;43.416;24.598;2023-03-16T00:52:48;6.50;;;3.70;;
8285;SDS011;4181;43.416;24.598;2023-03-16T00:55:17;4.60;;;3.40;;
8285;SDS011;4181;43.416;24.598;2023-03-16T00:57:45;4.20;;;3.10;;
8285;SDS011;4181;43.416;24.598;2023-03-16T01:00:11;3.33;;;3.03;;
8285;SDS011;4181;43.416;24.598;2023-03-16T01:02:40;3.10;;;2.80;;
8285;SDS011;4181;43.416;24.598;2023-03-16T01:05:06;2.93;;;2.73;;
8285;SDS011;4181;43.416;24.598;2023-03-16T01:07:33;2.63;;;2.43;;
8285;SDS011;4181;43.416;24.598;2023-03-16T01:10:00;3.63;;;2.60;;
8285;SDS011;4181;43.416;24.598;2023-03-16T01:12:26;3.37;;;2.47;;
8285;SDS011;4181;43.416;24.598;2023-03-16T01:14:51;3.20;;;2.50;;
8285;SDS011;4181;43.416;24.598;2023-03-16T01:17:17;2.37;;;2.13;;
8285;SDS011;4181;43.416;24.598;2023-03-16T01:19:43;3.30;;;2.00;;
8285;SDS011;4181;43.416;24.598;2023-03-16T01:22:10;2.57;;;2.00;;
8285;SDS011;4181;43.416;24.598;2023-03-16T01:24:37;4.23;;;1.97;;
8285;SDS011;4181;43.416;24.598;2023-03-16T01:27:04;2.23;;;1.73;;
8285;SDS011;4181;43.416;24.598;2023-03-16T01:29:31;2.17;;;1.70;;
8285;SDS011;4181;43.416;24.598;2023-03-16T01:31:57;1.50;;;1.40;;
8285;SDS011;4181;43.416;24.598;2023-03-16T01:34:23;3.53;;;1.77;;
8285;SDS011;4181;43.416;24.598;2023-03-16T01:36:48;2.23;;;2.03;;
8285;SDS011;4181;43.416;24.598;2023-03-16T01:39:15;1.73;;;1.60;;
8285;SDS011;4181;43.416;24.598;2023-03-16T01:41:41;2.73;;;1.80;;
8285;SDS011;4181;43.416;24.598;2023-03-16T01:44:12;2.07;;;1.50;;
8285;SDS011;4181;43.416;24.598;2023-03-16T01:46:39;1.50;;;1.40;;
8285;SDS011;4181;43.416;24.598;2023-03-16T01:49:10;2.50;;;1.60;;
8285;SDS011;4181;43.416;24.598;2023-03-16T01:54:11;1.57;;;1.47;;
8285;SDS011;4181;43.416;24.598;2023-03-16T01:56:49;2.60;;;1.20;;
8285;SDS011;4181;43.416;24.598;2023-03-16T01:59:32;2.97;;;1.37;;
8285;SDS011;4181;43.416;24.598;2023-03-16T02:02:03;1.63;;;1.30;;
8285;SDS011;4181;43.416;24.598;2023-03-16T02:04:48;1.53;;;1.40;;
8285;SDS011;4181;43.416;24.598;2023-03-16T02:07:14;1.50;;;1.30;;
8285;SDS011;4181;43.416;24.598;2023-03-16T02:09:44;1.10;;;1.03;;
8285;SDS011;4181;43.416;24.598;2023-03-16T02:12:13;3.03;;;1.27;;
8285;SDS011;4181;43.416;24.598;2023-03-16T02:14:46;1.40;;;1.17;;
8285;SDS011;4181;43.416;24.598;2023-03-16T02:17:13;6.17;;;1.73;;
8285;SDS011;4181;43.416;24.598;2023-03-16T02:22:40;1.93;;;1.37;;
8285;SDS011;4181;43.416;24.598;2023-03-16T02:25:08;1.50;;;1.40;;
8285;SDS011;4181;43.416;24.598;2023-03-16T02:30:43;1.73;;;1.50;;
8285;SDS011;4181;43.416;24.598;2023-03-16T02:33:08;3.63;;;1.57;;
8285;SDS011;4181;43.416;24.598;2023-03-16T02:35:35;1.93;;;1.40;;
8285;SDS011;4181;43.416;24.598;2023-03-16T02:38:00;1.20;;;1.10;;
8285;SDS011;4181;43.416;24.598;2023-03-16T02:40:30;3.77;;;1.40;;
8285;SDS011;4181;43.416;24.598;2023-03-16T02:45:34;1.60;;;1.50;;
8285;SDS011;4181;43.416;24.598;2023-03-16T02:48:08;1.67;;;1.50;;
8285;SDS011;4181;43.416;24.598;2023-03-16T02:50:45;3.27;;;1.63;;
8285;SDS011;4181;43.416;24.598;2023-03-16T02:53:12;2.87;;;1.60;;
8285;SDS011;4181;43.416;24.598;2023-03-16T02:55:39;17.47;;;10.47;;
8285;SDS011;4181;43.416;24.598;2023-03-16T02:58:04;7.17;;;3.60;;
8285;SDS011;4181;43.416;24.598;2023-03-16T03:00:30;3.80;;;1.53;;
8285;SDS011;4181;43.416;24.598;2023-03-16T03:02:56;1.57;;;1.47;;
8285;SDS011;4181;43.416;24.598;2023-03-16T03:05:22;2.07;;;1.87;;
8285;SDS011;4181;43.416;24.598;2023-03-16T03:07:48;2.33;;;1.57;;
8285;SDS011;4181;43.416;24.598;2023-03-16T03:10:13;3.93;;;1.50;;
8285;SDS011;4181;43.416;24.598;2023-03-16T03:12:39;1.60;;;1.50;;
8285;SDS011;4181;43.416;24.598;2023-03-16T03:15:06;5.13;;;1.73;;
8285;SDS011;4181;43.416;24.598;2023-03-16T03:17:32;15.00;;;9.20;;
8285;SDS011;4181;43.416;24.598;2023-03-16T03:19:58;3.17;;;2.30;;
8285;SDS011;4181;43.416;24.598;2023-03-16T03:22:33;4.23;;;1.97;;
8285;SDS011;4181;43.416;24.598;2023-03-16T03:24:58;2.37;;;1.73;;
8285;SDS011;4181;43.416;24.598;2023-03-16T03:27:24;5.00;;;1.60;;
8285;SDS011;4181;43.416;24.598;2023-03-16T03:29:49;2.13;;;1.60;;
8285;SDS011;4181;43.416;24.598;2023-03-16T03:32:16;3.20;;;1.70;;
8285;SDS011;4181;43.416;24.598;2023-03-16T03:34:41;4.57;;;3.07;;
8285;SDS011;4181;43.416;24.598;2023-03-16T03:37:07;10.77;;;6.10;;
8285;SDS011;4181;43.416;24.598;2023-03-16T03:39:32;2.70;;;2.43;;
8285;SDS011;4181;43.416;24.598;2023-03-16T03:41:58;2.90;;;2.07;;
8285;SDS011;4181;43.416;24.598;2023-03-16T03:44:23;3.27;;;1.80;;
8285;SDS011;4181;43.416;24.598;2023-03-16T03:46:49;2.00;;;1.40;;
8285;SDS011;4181;43.416;24.598;2023-03-16T03:49:15;2.80;;;1.50;;
8285;SDS011;4181;43.416;24.598;2023-03-16T03:51:41;1.40;;;1.30;;
8285;SDS011;4181;43.416;24.598;2023-03-16T03:54:07;1.80;;;1.40;;
8285;SDS011;4181;43.416;24.598;2023-03-16T03:56:33;1.87;;;1.67;;
8285;SDS011;4181;43.416;24.598;2023-03-16T03:58:58;2.00;;;1.80;;
8285;SDS011;4181;43.416;24.598;2023-03-16T04:01:24;1.77;;;1.67;;
8285;SDS011;4181;43.416;24.598;2023-03-16T04:03:50;8.97;;;6.83;;
8285;SDS011;4181;43.416;24.598;2023-03-16T04:06:15;9.90;;;4.13;;
8285;SDS011;4181;43.416;24.598;2023-03-16T04:08:41;3.87;;;2.83;;
8285;SDS011;4181;43.416;24.598;2023-03-16T04:11:06;12.63;;;2.40;;
8285;SDS011;4181;43.416;24.598;2023-03-16T04:13:32;2.47;;;1.60;;
8285;SDS011;4181;43.416;24.598;2023-03-16T04:15:58;1.90;;;1.40;;
8285;SDS011;4181;43.416;24.598;2023-03-16T04:18:26;2.33;;;1.70;;
8285;SDS011;4181;43.416;24.598;2023-03-16T04:20:53;3.07;;;1.80;;
8285;SDS011;4181;43.416;24.598;2023-03-16T04:23:20;6.13;;;4.30;;
8285;SDS011;4181;43.416;24.598;2023-03-16T04:25:46;5.80;;;3.10;;
8285;SDS011;4181;43.416;24.598;2023-03-16T04:28:12;3.50;;;2.37;;
8285;SDS011;4181;43.416;24.598;2023-03-16T04:30:38;3.53;;;2.40;;
8285;SDS011;4181;43.416;24.598;2023-03-16T04:33:03;3.10;;;2.27;;
8285;SDS011;4181;43.416;24.598;2023-03-16T04:35:29;3.13;;;2.10;;
8285;SDS011;4181;43.416;24.598;2023-03-16T04:37:55;3.53;;;1.87;;
8285;SDS011;4181;43.416;24.598;2023-03-16T04:40:21;2.83;;;1.70;;
8285;SDS011;4181;43.416;24.598;2023-03-16T04:42:47;3.27;;;1.70;;
8285;SDS011;4181;43.416;24.598;2023-03-16T04:45:13;3.17;;;1.80;;
8285;SDS011;4181;43.416;24.598;2023-03-16T04:47:39;2.30;;;1.60;;
8285;SDS011;4181;43.416;24.598;2023-03-16T04:50:05;5.83;;;4.70;;
8285;SDS011;4181;43.416;24.598;2023-03-16T04:52:32;4.03;;;2.33;;
8285;SDS011;4181;43.416;24.598;2023-03-16T04:54:57;14.87;;;10.10;;
8285;SDS011;4181;43.416;24.598;2023-03-16T04:57:23;11.57;;;9.67;;
8285;SDS011;4181;43.416;24.598;2023-03-16T04:59:49;3.33;;;2.73;;
8285;SDS011;4181;43.416;24.598;2023-03-16T05:02:15;6.27;;;4.13;;
8285;SDS011;4181;43.416;24.598;2023-03-16T05:04:41;3.67;;;2.90;;
8285;SDS011;4181;43.416;24.598;2023-03-16T05:07:07;2.00;;;1.80;;
8285;SDS011;4181;43.416;24.598;2023-03-16T05:09:33;1.90;;;1.80;;
8285;SDS011;4181;43.416;24.598;2023-03-16T05:11:58;2.13;;;1.43;;
8285;SDS011;4181;43.416;24.598;2023-03-16T05:14:24;2.33;;;2.10;;
8285;SDS011;4181;43.416;24.598;2023-03-16T05:16:50;2.50;;;2.00;;
8285;SDS011;4181;43.416;24.598;2023-03-16T05:19:18;3.97;;;2.43;;
8285;SDS011;4181;43.416;24.598;2023-03-16T05:21:44;7.93;;;2.73;;
8285;SDS011;4181;43.416;24.598;2023-03-16T05:24:10;5.77;;;2.83;;
8285;SDS011;4181;43.416;24.598;2023-03-16T05:26:36;2.60;;;2.10;;
8285;SDS011;4181;43.416;24.598;2023-03-16T05:29:04;3.67;;;2.30;;
8285;SDS011;4181;43.416;24.598;2023-03-16T05:31:30;2.50;;;2.20;;
8285;SDS011;4181;43.416;24.598;2023-03-16T05:34:00;2.23;;;2.03;;
8285;SDS011;4181;43.416;24.598;2023-03-16T05:36:29;2.10;;;1.87;;
8285;SDS011;4181;43.416;24.598;2023-03-16T05:38:54;3.80;;;2.40;;
8285;SDS011;4181;43.416;24.598;2023-03-16T05:41:20;5.63;;;2.50;;
8285;SDS011;4181;43.416;24.598;2023-03-16T05:43:46;7.80;;;5.17;;
8285;SDS011;4181;43.416;24.598;2023-03-16T05:46:12;4.77;;;3.17;;
8285;SDS011;4181;43.416;24.598;2023-03-16T05:48:38;6.17;;;4.57;;
8285;SDS011;4181;43.416;24.598;2023-03-16T05:51:05;11.93;;;9.50;;
8285;SDS011;4181;43.416;24.598;2023-03-16T05:53:31;60.97;;;34.77;;
8285;SDS011;4181;43.416;24.598;2023-03-16T05:55:57;12.80;;;7.60;;
8285;SDS011;4181;43.416;24.598;2023-03-16T05:58:23;5.77;;;3.97;;
8285;SDS011;4181;43.416;24.598;2023-03-16T06:00:48;7.00;;;3.33;;
8285;SDS011;4181;43.416;24.598;2023-03-16T06:03:19;2.30;;;2.10;;
8285;SDS011;4181;43.416;24.598;2023-03-16T06:05:45;1.97;;;1.87;;
8285;SDS011;4181;43.416;24.598;2023-03-16T06:08:11;2.50;;;2.30;;
8285;SDS011;4181;43.416;24.598;2023-03-16T06:10:37;2.60;;;2.30;;
8285;SDS011;4181;43.416;24.598;2023-03-16T06:13:02;4.83;;;2.57;;
8285;SDS011;4181;43.416;24.598;2023-03-16T06:15:27;2.33;;;1.67;;
8285;SDS011;4181;43.416;24.598;2023-03-16T06:17:54;2.10;;;1.90;;
8285;SDS011;4181;43.416;24.598;2023-03-16T06:20:20;4.07;;;2.17;;
8285;SDS011;4181;43.416;24.598;2023-03-16T06:22:46;4.00;;;2.37;;
8285;SDS011;4181;43.416;24.598;2023-03-16T06:25:12;3.73;;;2.67;;
8285;SDS011;4181;43.416;24.598;2023-03-16T06:27:38;7.43;;;3.53;;
8285;SDS011;4181;43.416;24.598;2023-03-16T06:30:07;2.90;;;2.60;;
8285;SDS011;4181;43.416;24.598;2023-03-16T06:32:36;2.87;;;2.20;;
8285;SDS011;4181;43.416;24.598;2023-03-16T06:35:06;3.23;;;2.00;;
8285;SDS011;4181;43.416;24.598;2023-03-16T06:37:32;3.07;;;2.47;;
8285;SDS011;4181;43.416;24.598;2023-03-16T06:40:00;3.73;;;2.33;;
8285;SDS011;4181;43.416;24.598;2023-03-16T06:42:25;2.10;;;1.90;;
8285;SDS011;4181;43.416;24.598;2023-03-16T06:44:51;2.00;;;1.90;;
8285;SDS011;4181;43.416;24.598;2023-03-16T06:47:17;5.90;;;2.27;;
8285;SDS011;4181;43.416;24.598;2023-03-16T06:49:43;3.90;;;2.30;;
8285;SDS011;4181;43.416;24.598;2023-03-16T06:52:11;3.23;;;2.77;;
8285;SDS011;4181;43.416;24.598;2023-03-16T06:54:38;6.17;;;2.57;;
8285;SDS011;4181;43.416;24.598;2023-03-16T06:57:04;2.50;;;2.30;;
8285;SDS011;4181;43.416;24.598;2023-03-16T06:59:29;4.67;;;2.60;;
8285;SDS011;4181;43.416;24.598;2023-03-16T07:01:55;2.70;;;2.50;;
8285;SDS011;4181;43.416;24.598;2023-03-16T07:04:21;4.90;;;2.30;;
8285;SDS011;4181;43.416;24.598;2023-03-16T07:06:46;6.87;;;2.40;;
8285;SDS011;4181;43.416;24.598;2023-03-16T07:09:11;5.73;;;2.60;;
8285;SDS011;4181;43.416;24.598;2023-03-16T07:11:38;2.30;;;2.10;;
8285;SDS011;4181;43.416;24.598;2023-03-16T07:14:03;3.33;;;2.17;;
8285;SDS011;4181;43.416;24.598;2023-03-16T07:16:29;3.60;;;2.00;;
8285;SDS011;4181;43.416;24.598;2023-03-16T07:18:56;2.57;;;2.23;;
8285;SDS011;4181;43.416;24.598;2023-03-16T07:21:21;9.23;;;2.67;;
8285;SDS011;4181;43.416;24.598;2023-03-16T07:23:47;6.27;;;4.23;;
8285;SDS011;4181;43.416;24.598;2023-03-16T07:26:13;4.80;;;3.87;;
8285;SDS011;4181;43.416;24.598;2023-03-16T07:28:38;3.67;;;2.90;;
8285;SDS011;4181;43.416;24.598;2023-03-16T07:31:05;3.20;;;2.90;;
8285;SDS011;4181;43.416;24.598;2023-03-16T07:33:32;12.60;;;9.50;;
8285;SDS011;4181;43.416;24.598;2023-03-16T07:35:58;3.73;;;3.43;;
8285;SDS011;4181;43.416;24.598;2023-03-16T07:38:24;4.67;;;3.63;;
8285;SDS011;4181;43.416;24.598;2023-03-16T07:40:49;5.17;;;3.10;;
8285;SDS011;4181;43.416;24.598;2023-03-16T07:43:18;3.43;;;3.13;;
8285;SDS011;4181;43.416;24.598;2023-03-16T07:45:47;7.93;;;3.07;;
8285;SDS011;4181;43.416;24.598;2023-03-16T07:48:14;2.90;;;2.70;;
8285;SDS011;4181;43.416;24.598;2023-03-16T07:50:39;4.23;;;2.40;;
8285;SDS011;4181;43.416;24.598;2023-03-16T07:53:05;2.40;;;2.20;;
8285;SDS011;4181;43.416;24.598;2023-03-16T07:55:31;4.93;;;3.03;;
8285;SDS011;4181;43.416;24.598;2023-03-16T07:57:56;2.73;;;2.10;;
8285;SDS011;4181;43.416;24.598;2023-03-16T08:00:23;4.37;;;2.60;;
8285;SDS011;4181;43.416;24.598;2023-03-16T08:02:49;5.50;;;2.60;;
8285;SDS011;4181;43.416;24.598;2023-03-16T08:05:15;3.80;;;2.10;;
8285;SDS011;4181;43.416;24.598;2023-03-16T08:07:41;3.03;;;1.93;;
8285;SDS011;4181;43.416;24.598;2023-03-16T08:10:07;2.00;;;1.80;;
8285;SDS011;4181;43.416;24.598;2023-03-16T08:12:33;2.00;;;1.80;;
8285;SDS011;4181;43.416;24.598;2023-03-16T08:14:58;2.73;;;2.40;;
8285;SDS011;4181;43.416;24.598;2023-03-16T08:17:24;1.80;;;1.70;;
8285;SDS011;4181;43.416;24.598;2023-03-16T08:19:49;2.13;;;1.60;;
8285;SDS011;4181;43.416;24.598;2023-03-16T08:22:14;2.13;;;1.70;;
8285;SDS011;4181;43.416;24.598;2023-03-16T08:24:41;2.37;;;2.17;;
8285;SDS011;4181;43.416;24.598;2023-03-16T08:27:07;1.90;;;1.80;;
8285;SDS011;4181;43.416;24.598;2023-03-16T08:29:33;2.10;;;1.90;;
8285;SDS011;4181;43.416;24.598;2023-03-16T08:31:58;2.10;;;1.87;;
8285;SDS011;4181;43.416;24.598;2023-03-16T08:34:25;2.83;;;2.40;;
8285;SDS011;4181;43.416;24.598;2023-03-16T08:36:51;3.70;;;2.93;;
8285;SDS011;4181;43.416;24.598;2023-03-16T08:39:19;3.33;;;2.63;;
8285;SDS011;4181;43.416;24.598;2023-03-16T08:41:44;3.20;;;2.50;;
8285;SDS011;4181;43.416;24.598;2023-03-16T08:44:11;3.47;;;2.70;;
8285;SDS011;4181;43.416;24.598;2023-03-16T08:46:37;5.50;;;3.63;;
8285;SDS011;4181;43.416;24.598;2023-03-16T08:49:03;8.13;;;5.13;;
8285;SDS011;4181;43.416;24.598;2023-03-16T08:51:30;2.20;;;1.87;;
8285;SDS011;4181;43.416;24.598;2023-03-16T08:53:56;6.17;;;3.93;;
8285;SDS011;4181;43.416;24.598;2023-03-16T08:56:23;2.43;;;2.00;;
8285;SDS011;4181;43.416;24.598;2023-03-16T08:58:49;2.03;;;1.93;;
8285;SDS011;4181;43.416;24.598;2023-03-16T09:01:15;2.20;;;2.00;;
8285;SDS011;4181;43.416;24.598;2023-03-16T09:03:44;4.67;;;2.33;;
8285;SDS011;4181;43.416;24.598;2023-03-16T09:06:10;3.07;;;2.40;;
8285;SDS011;4181;43.416;24.598;2023-03-16T09:08:39;3.10;;;2.33;;
8285;SDS011;4181;43.416;24.598;2023-03-16T09:11:06;3.30;;;2.33;;
8285;SDS011;4181;43.416;24.598;2023-03-16T09:13:33;2.60;;;2.30;;
8285;SDS011;4181;43.416;24.598;2023-03-16T09:15:59;4.87;;;2.23;;
8285;SDS011;4181;43.416;24.598;2023-03-16T09:18:25;2.07;;;1.87;;
8285;SDS011;4181;43.416;24.598;2023-03-16T09:21:01;2.47;;;2.00;;
8285;SDS011;4181;43.416;24.598;2023-03-16T09:23:31;2.07;;;1.90;;
8285;SDS011;4181;43.416;24.598;2023-03-16T09:26:01;2.07;;;1.90;;
8285;SDS011;4181;43.416;24.598;2023-03-16T09:28:29;2.33;;;2.13;;
8285;SDS011;4181;43.416;24.598;2023-03-16T09:30:58;2.20;;;2.00;;
8285;SDS011;4181;43.416;24.598;2023-03-16T09:33:24;2.27;;;1.90;;
8285;SDS011;4181;43.416;24.598;2023-03-16T09:35:51;3.20;;;2.40;;
8285;SDS011;4181;43.416;24.598;2023-03-16T09:38:19;20.30;;;11.70;;
8285;SDS011;4181;43.416;24.598;2023-03-16T09:40:46;3.87;;;2.93;;
8285;SDS011;4181;43.416;24.598;2023-03-16T09:46:24;2.33;;;2.13;;
8285;SDS011;4181;43.416;24.598;2023-03-16T09:48:53;4.17;;;2.67;;
8285;SDS011;4181;43.416;24.598;2023-03-16T09:51:35;4.83;;;3.30;;
8285;SDS011;4181;43.416;24.598;2023-03-16T09:54:12;2.60;;;2.27;;
8285;SDS011;4181;43.416;24.598;2023-03-16T09:56:50;2.93;;;2.60;;
8285;SDS011;4181;43.416;24.598;2023-03-16T09:59:18;2.87;;;2.60;;
8285;SDS011;4181;43.416;24.598;2023-03-16T10:01:47;10.13;;;6.70;;
8285;SDS011;4181;43.416;24.598;2023-03-16T10:04:30;21.77;;;12.00;;
8285;SDS011;4181;43.416;24.598;2023-03-16T10:10:34;34.43;;;15.83;;
8285;SDS011;4181;43.416;24.598;2023-03-16T10:16:30;18.37;;;11.67;;
8285;SDS011;4181;43.416;24.598;2023-03-16T10:19:04;9.20;;;6.13;;
8285;SDS011;4181;43.416;24.598;2023-03-16T10:21:37;6.90;;;4.97;;
8285;SDS011;4181;43.416;24.598;2023-03-16T10:24:11;10.10;;;6.00;;
8285;SDS011;4181;43.416;24.598;2023-03-16T10:27:00;6.10;;;3.47;;
8285;SDS011;4181;43.416;24.598;2023-03-16T10:29:29;5.13;;;3.03;;
8285;SDS011;4181;43.416;24.598;2023-03-16T10:32:21;4.20;;;3.80;;
8285;SDS011;4181;43.416;24.598;2023-03-16T10:34:58;8.53;;;5.50;;
8285;SDS011;4181;43.416;24.598;2023-03-16T10:37:29;5.33;;;3.90;;
8285;SDS011;4181;43.416;24.598;2023-03-16T10:39:55;4.03;;;2.93;;
8285;SDS011;4181;43.416;24.598;2023-03-16T10:42:21;7.97;;;5.10;;
8285;SDS011;4181;43.416;24.598;2023-03-16T10:44:48;40.83;;;20.90;;
8285;SDS011;4181;43.416;24.598;2023-03-16T10:47:18;16.50;;;9.33;;
8285;SDS011;4181;43.416;24.598;2023-03-16T10:49:47;23.57;;;11.77;;
8285;SDS011;4181;43.416;24.598;2023-03-16T10:54:52;3.67;;;3.10;;
8285;SDS011;4181;43.416;24.598;2023-03-16T10:57:30;3.27;;;2.97;;
8285;SDS011;4181;43.416;24.598;2023-03-16T11:00:04;6.43;;;4.40;;
8285;SDS011;4181;43.416;24.598;2023-03-16T11:02:34;9.73;;;5.40;;
8285;SDS011;4181;43.416;24.598;2023-03-16T11:07:48;14.97;;;8.10;;
8285;SDS011;4181;43.416;24.598;2023-03-16T11:10:29;10.63;;;6.07;;
8285;SDS011;4181;43.416;24.598;2023-03-16T11:13:17;6.43;;;4.07;;
8285;SDS011;4181;43.416;24.598;2023-03-16T11:15:56;6.63;;;4.43;;
8285;SDS011;4181;43.416;24.598;2023-03-16T11:18:37;5.07;;;4.10;;
8285;SDS011;4181;43.416;24.598;2023-03-16T11:21:50;3.47;;;3.00;;
8285;SDS011;4181;43.416;24.598;2023-03-16T11:24:16;3.53;;;3.03;;
8285;SDS011;4181;43.416;24.598;2023-03-16T11:26:48;3.00;;;2.80;;
8285;SDS011;4181;43.416;24.598;2023-03-16T11:29:22;4.80;;;2.80;;
8285;SDS011;4181;43.416;24.598;2023-03-16T11:31:59;3.03;;;2.73;;
8285;SDS011;4181;43.416;24.598;2023-03-16T11:34:30;3.40;;;2.80;;
8285;SDS011;4181;43.416;24.598;2023-03-16T11:42:28;4.70;;;2.63;;
8285;SDS011;4181;43.416;24.598;2023-03-16T11:45:40;8.43;;;4.83;;
8285;SDS011;4181;43.416;24.598;2023-03-16T11:48:03;6.97;;;4.10;;
8285;SDS011;4181;43.416;24.598;2023-03-16T11:53:18;7.47;;;4.77;;
8285;SDS011;4181;43.416;24.598;2023-03-16T11:59:36;8.87;;;6.57;;
8285;SDS011;4181;43.416;24.598;2023-03-16T12:02:19;13.07;;;8.13;;
8285;SDS011;4181;43.416;24.598;2023-03-16T12:11:08;6.50;;;4.90;;
8285;SDS011;4181;43.416;24.598;2023-03-16T12:16:56;8.07;;;5.20;;
8285;SDS011;4181;43.416;24.598;2023-03-16T12:19:40;3.80;;;3.23;;
8285;SDS011;4181;43.416;24.598;2023-03-16T12:22:20;4.37;;;3.23;;
8285;SDS011;4181;43.416;24.598;2023-03-16T12:24:53;3.80;;;3.33;;
8285;SDS011;4181;43.416;24.598;2023-03-16T12:27:20;3.40;;;3.10;;
8285;SDS011;4181;43.416;24.598;2023-03-16T12:30:05;3.60;;;3.30;;
8285;SDS011;4181;43.416;24.598;2023-03-16T12:32:45;3.20;;;2.70;;
8285;SDS011;4181;43.416;24.598;2023-03-16T12:40:58;3.10;;;2.67;;
8285;SDS011;4181;43.416;24.598;2023-03-16T12:47:05;3.60;;;3.30;;
8285;SDS011;4181;43.416;24.598;2023-03-16T12:49:46;4.80;;;4.17;;
8285;SDS011;4181;43.416;24.598;2023-03-16T12:52:13;4.30;;;3.90;;
8285;SDS011;4181;43.416;24.598;2023-03-16T12:54:52;3.77;;;3.20;;
8285;SDS011;4181;43.416;24.598;2023-03-16T12:57:29;5.30;;;4.33;;
8285;SDS011;4181;43.416;24.598;2023-03-16T12:59:56;5.60;;;4.97;;
8285;SDS011;4181;43.416;24.598;2023-03-16T13:02:28;5.30;;;4.20;;
8285;SDS011;4181;43.416;24.598;2023-03-16T13:05:00;8.13;;;4.40;;
8285;SDS011;4181;43.416;24.598;2023-03-16T13:07:32;4.23;;;3.83;;
8285;SDS011;4181;43.416;24.598;2023-03-16T13:10:00;4.37;;;3.97;;
8285;SDS011;4181;43.416;24.598;2023-03-16T13:12:33;3.97;;;3.40;;
8285;SDS011;4181;43.416;24.598;2023-03-16T13:17:51;5.60;;;4.00;;
8285;SDS011;4181;43.416;24.598;2023-03-16T13:20:30;4.50;;;4.03;;
8285;SDS011;4181;43.416;24.598;2023-03-16T13:25:40;5.00;;;3.53;;
8285;SDS011;4181;43.416;24.598;2023-03-16T13:28:11;14.80;;;10.40;;
8285;SDS011;4181;43.416;24.598;2023-03-16T13:30:42;15.97;;;6.70;;
8285;SDS011;4181;43.416;24.598;2023-03-16T13:33:20;5.97;;;4.60;;
8285;SDS011;4181;43.416;24.598;2023-03-16T13:35:49;8.13;;;4.47;;
8285;SDS011;4181;43.416;24.598;2023-03-16T13:38:16;7.73;;;4.73;;
8285;SDS011;4181;43.416;24.598;2023-03-16T13:40:45;6.03;;;4.30;;
8285;SDS011;4181;43.416;24.598;2023-03-16T13:43:15;6.47;;;4.57;;
8285;SDS011;4181;43.416;24.598;2023-03-16T13:45:43;9.67;;;5.43;;
8285;SDS011;4181;43.416;24.598;2023-03-16T13:48:12;5.47;;;4.63;;
8285;SDS011;4181;43.416;24.598;2023-03-16T13:50:39;13.57;;;5.87;;
8285;SDS011;4181;43.416;24.598;2023-03-16T13:55:43;10.20;;;6.33;;
8285;SDS011;4181;43.416;24.598;2023-03-16T13:58:19;9.10;;;5.73;;
8285;SDS011;4181;43.416;24.598;2023-03-16T14:00:53;9.30;;;6.30;;
8285;SDS011;4181;43.416;24.598;2023-03-16T14:03:21;7.17;;;5.90;;
8285;SDS011;4181;43.416;24.598;2023-03-16T14:05:48;7.07;;;5.70;;
8285;SDS011;4181;43.416;24.598;2023-03-16T14:08:18;8.23;;;5.33;;
8285;SDS011;4181;43.416;24.598;2023-03-16T14:10:45;5.13;;;4.57;;
8285;SDS011;4181;43.416;24.598;2023-03-16T14:15:53;7.43;;;5.20;;
8285;SDS011;4181;43.416;24.598;2023-03-16T14:18:22;4.77;;;4.10;;
8285;SDS011;4181;43.416;24.598;2023-03-16T14:20:52;6.27;;;4.43;;
8285;SDS011;4181;43.416;24.598;2023-03-16T14:23:20;5.47;;;4.20;;
8285;SDS011;4181;43.416;24.598;2023-03-16T14:25:48;7.67;;;6.20;;
8285;SDS011;4181;43.416;24.598;2023-03-16T14:28:15;9.80;;;6.30;;
8285;SDS011;4181;43.416;24.598;2023-03-16T14:30:52;5.30;;;4.43;;
8285;SDS011;4181;43.416;24.598;2023-03-16T14:36:05;8.33;;;7.13;;
8285;SDS011;4181;43.416;24.598;2023-03-16T14:38:35;4.97;;;4.47;;
8285;SDS011;4181;43.416;24.598;2023-03-16T14:41:02;5.67;;;4.90;;
8285;SDS011;4181;43.416;24.598;2023-03-16T14:43:32;11.17;;;9.83;;
8285;SDS011;4181;43.416;24.598;2023-03-16T14:46:02;5.50;;;3.80;;
8285;SDS011;4181;43.416;24.598;2023-03-16T14:48:29;4.13;;;3.73;;
8285;SDS011;4181;43.416;24.598;2023-03-16T14:50:59;12.40;;;7.80;;
8285;SDS011;4181;43.416;24.598;2023-03-16T14:53:29;6.30;;;5.50;;
8285;SDS011;4181;43.416;24.598;2023-03-16T14:55:55;8.03;;;5.93;;
8285;SDS011;4181;43.416;24.598;2023-03-16T14:58:23;8.20;;;5.17;;
8285;SDS011;4181;43.416;24.598;2023-03-16T15:00:48;7.37;;;6.17;;
8285;SDS011;4181;43.416;24.598;2023-03-16T15:03:19;6.90;;;5.60;;
8285;SDS011;4181;43.416;24.598;2023-03-16T15:05:48;8.63;;;7.10;;
8285;SDS011;4181;43.416;24.598;2023-03-16T15:08:26;9.97;;;8.73;;
8285;SDS011;4181;43.416;24.598;2023-03-16T15:11:03;7.40;;;6.60;;
8285;SDS011;4181;43.416;24.598;2023-03-16T15:13:32;10.30;;;8.73;;
8285;SDS011;4181;43.416;24.598;2023-03-16T15:16:17;6.20;;;5.27;;
8285;SDS011;4181;43.416;24.598;2023-03-16T15:18:47;8.63;;;5.77;;
8285;SDS011;4181;43.416;24.598;2023-03-16T15:23:42;6.07;;;5.30;;
8285;SDS011;4181;43.416;24.598;2023-03-16T15:26:10;11.30;;;7.63;;
8285;SDS011;4181;43.416;24.598;2023-03-16T15:28:37;8.17;;;5.90;;
8285;SDS011;4181;43.416;24.598;2023-03-16T15:31:03;10.67;;;7.50;;
8285;SDS011;4181;43.416;24.598;2023-03-16T15:33:29;7.87;;;6.60;;
8285;SDS011;4181;43.416;24.598;2023-03-16T15:35:57;12.10;;;7.77;;
8285;SDS011;4181;43.416;24.598;2023-03-16T15:40:54;13.67;;;7.90;;
8285;SDS011;4181;43.416;24.598;2023-03-16T15:43:21;12.20;;;9.53;;
8285;SDS011;4181;43.416;24.598;2023-03-16T15:45:51;23.13;;;14.00;;
8285;SDS011;4181;43.416;24.598;2023-03-16T15:48:18;10.80;;;9.70;;
8285;SDS011;4181;43.416;24.598;2023-03-16T15:50:52;12.80;;;10.80;;
8285;SDS011;4181;43.416;24.598;2023-03-16T15:56:06;11.87;;;10.67;;
8285;SDS011;4181;43.416;24.598;2023-03-16T15:58:35;9.80;;;8.80;;
8285;SDS011;4181;43.416;24.598;2023-03-16T16:01:02;8.77;;;7.60;;
8285;SDS011;4181;43.416;24.598;2023-03-16T16:03:29;11.17;;;8.30;;
8285;SDS011;4181;43.416;24.598;2023-03-16T16:05:54;9.90;;;8.23;;
8285;SDS011;4181;43.416;24.598;2023-03-16T16:08:20;10.20;;;8.27;;
8285;SDS011;4181;43.416;24.598;2023-03-16T16:10:46;11.93;;;9.37;;
8285;SDS011;4181;43.416;24.598;2023-03-16T16:13:15;13.90;;;11.00;;
8285;SDS011;4181;43.416;24.598;2023-03-16T16:15:47;14.17;;;10.90;;
8285;SDS011;4181;43.416;24.598;2023-03-16T16:18:33;51.63;;;30.70;;
8285;SDS011;4181;43.416;24.598;2023-03-16T16:21:01;51.03;;;34.17;;
8285;SDS011;4181;43.416;24.598;2023-03-16T16:23:29;20.07;;;14.07;;
8285;SDS011;4181;43.416;24.598;2023-03-16T16:25:57;20.80;;;16.50;;